Time;durP1;ratioP1;P1;durP2;ratioP2;P2;SDS_P1;SDS_P2;PMS_P1;PMS_P2;Temp;Humidity;BMP_temperature;BMP_pressure;BME280_temperature;BME280_humidity;BME280_pressure;Samples;Min_cycle;Max_cycle;Signal;HPM_P1;HPM_P2
2022/12/20 00:00:19;;;;;;;16.02;7.40;;;;;;;-0.43;67.68;103263.34;6299408;22;20407;-86
2022/12/20 00:02:51;;;;;;;16.80;7.25;;;;;;;-0.62;67.72;103223.16;6294685;22;20003;-86
2022/12/20 00:05:22;;;;;;;18.83;7.97;;;;;;;-0.47;67.47;103246.69;6323383;22;20011;-86
2022/12/20 00:08:53;;;;;;;18.50;7.35;;;;;;;-0.27;67.15;103248.97;6300559;22;20089;-86
2022/12/20 00:11:46;;;;;;;16.73;7.05;;;;;;;-0.20;66.98;103256.81;6330175;22;20026;-86
2022/12/20 00:14:17;;;;;;;16.02;6.85;;;;;;;-0.25;67.07;103257.75;6309062;22;20007;-89
2022/12/20 00:16:45;;;;;;;17.48;7.63;;;;;;;-0.20;67.02;103256.81;6305937;22;20025;-87
2022/12/20 00:19:33;;;;;;;20.55;8.70;;;;;;;-0.30;67.52;103262.25;6276666;22;20053;-87
2022/12/20 00:22:27;;;;;;;18.17;7.38;;;;;;;-0.16;67.08;103247.94;6328452;22;20050;-90
2022/12/20 00:25:04;;;;;;;17.25;7.68;;;;;;;-0.02;66.72;103267.91;6300366;22;20067;-90
2022/12/20 00:28:09;;;;;;;20.15;8.38;;;;;;;0.12;66.70;103280.88;6302084;22;19999;-87
2022/12/20 00:31:02;;;;;;;20.60;7.70;;;;;;;-0.05;67.04;103251.22;6326268;22;20022;-89
2022/12/20 00:34:26;;;;;;;17.88;8.00;;;;;;;-0.07;66.98;103250.38;6310048;22;20007;-87
2022/12/20 00:37:08;;;;;;;17.42;7.13;;;;;;;-0.15;67.32;103244.38;6301933;22;20063;-88
2022/12/20 00:40:37;;;;;;;17.63;6.93;;;;;;;-0.06;67.15;103246.84;6321396;22;20034;-89
2022/12/20 00:48:33;;;;;;;18.13;7.68;;;;;;;-0.03;67.38;103236.19;6329544;22;20019;-89
2022/12/20 00:51:13;;;;;;;19.35;7.28;;;;;;;-0.17;67.65;103220.59;6304121;22;20111;-87
2022/12/20 00:54:19;;;;;;;16.90;7.40;;;;;;;0.14;67.05;103244.69;6275618;22;20009;-88
2022/12/20 00:57:14;;;;;;;18.17;7.45;;;;;;;-0.15;67.75;103212.63;6325598;22;20049;-88
2022/12/20 01:00:17;;;;;;;16.30;7.25;;;;;;;0.11;67.53;103230.63;6330625;22;20023;-89
2022/12/20 01:03:27;;;;;;;14.13;6.80;;;;;;;0.08;67.32;103231.56;6307609;22;19995;-88
2022/12/20 01:06:25;;;;;;;20.00;7.32;;;;;;;-0.14;67.51;103187.91;6326874;22;19995;-89
2022/12/20 01:09:18;;;;;;;17.73;6.75;;;;;;;0.02;66.78;103209.66;6302771;22;20003;-90
2022/12/20 01:12:08;;;;;;;15.30;6.88;;;;;;;0.02;67.00;103215.81;6329959;22;20086;-88
2022/12/20 01:15:18;;;;;;;16.13;7.45;;;;;;;0.00;67.40;103215.00;6302730;22;20073;-88
2022/12/20 01:18:25;;;;;;;17.70;7.60;;;;;;;-0.10;68.02;103211.63;6327352;22;20007;-87
2022/12/20 01:21:43;;;;;;;16.10;6.85;;;;;;;-0.23;68.37;103211.00;6316163;22;20091;-88
2022/12/20 01:24:31;;;;;;;16.25;7.78;;;;;;;0.04;67.97;103227.25;6319805;22;20011;-89
2022/12/20 01:26:59;;;;;;;16.85;7.00;;;;;;;0.06;67.38;103196.34;6300786;22;20007;-87
2022/12/20 01:29:28;;;;;;;13.70;6.72;;;;;;;-0.03;67.47;103178.88;6303813;22;19995;-88
2022/12/20 01:43:21;;;;;;;20.87;7.40;;;;;;;-0.09;68.01;103159.63;6347698;22;20020;-88
2022/12/20 01:46:15;;;;;;;16.85;7.07;;;;;;;0.14;67.52;103178.56;6364743;22;20014;-90
2022/12/20 01:49:44;;;;;;;14.73;6.68;;;;;;;0.35;67.42;103186.91;6380672;22;20052;-89
2022/12/20 01:52:43;;;;;;;18.75;6.57;;;;;;;-0.09;67.84;103134.06;6329051;22;20055;-88
2022/12/20 01:55:53;;;;;;;15.50;7.05;;;;;;;0.05;68.15;103152.28;6358088;22;20542;-88
2022/12/20 01:58:44;;;;;;;17.85;7.18;;;;;;;0.14;67.68;103149.44;6354686;22;20070;-88
2022/12/20 02:01:32;;;;;;;18.65;7.35;;;;;;;0.38;67.58;103176.28;6325350;22;20379;-88
2022/12/20 02:04:46;;;;;;;20.35;7.40;;;;;;;0.27;67.76;103168.56;6306587;22;20037;-87
2022/12/20 02:07:42;;;;;;;15.50;7.05;;;;;;;0.29;67.74;103148.22;6360798;22;20007;-86
2022/12/20 02:10:16;;;;;;;17.33;6.95;;;;;;;0.37;66.66;103133.03;6356204;22;20003;-89
2022/12/20 02:12:47;;;;;;;15.00;6.95;;;;;;;0.40;67.12;103134.78;6331007;22;20002;-88
2022/12/20 02:15:52;;;;;;;15.75;6.55;;;;;;;0.47;66.72;103141.66;6304742;22;20011;-88
2022/12/20 02:18:46;;;;;;;15.93;6.95;;;;;;;0.61;66.94;103155.47;6338896;22;20056;-88
2022/12/20 02:21:35;;;;;;;16.00;7.13;;;;;;;0.61;66.89;103147.50;6331035;22;20093;-87
2022/12/20 02:24:26;;;;;;;15.68;5.93;;;;;;;0.57;66.92;103151.13;6301858;22;19994;-86
2022/12/20 02:27:32;;;;;;;13.60;6.13;;;;;;;0.53;67.25;103149.44;6362256;22;20050;-88
2022/12/20 02:30:21;;;;;;;18.17;7.30;;;;;;;0.54;67.46;103145.03;6359624;22;20007;-88
2022/12/20 02:32:54;;;;;;;16.45;6.95;;;;;;;0.43;66.95;103113.53;6360339;22;20011;-88
2022/12/20 02:36:10;;;;;;;15.02;6.80;;;;;;;0.45;66.76;103117.00;6330412;22;20014;-89
2022/12/20 02:39:00;;;;;;;13.70;6.32;;;;;;;0.11;67.43;103088.66;6354652;22;20027;-88
2022/12/20 02:41:35;;;;;;;18.13;6.78;;;;;;;0.24;67.48;103121.00;6357800;22;20062;-87
2022/12/20 02:47:04;;;;;;;;;;;;;;;0.45;67.18;103138.19;6337763;22;20017;-87
2022/12/20 02:49:49;;;;;;;15.68;6.75;;;;;;;0.01;67.64;103081.84;6327455;22;19911;-88
2022/12/20 03:01:36;;;;;;;16.48;6.60;;;;;;;0.26;67.83;103136.84;6403597;22;20318;-87
2022/12/20 03:04:25;;;;;;;16.27;6.78;;;;;;;0.15;68.10;103103.56;6389664;22;20014;-89
2022/12/20 03:12:51;;;;;;;14.52;6.65;;;;;;;0.19;68.00;103133.47;6391859;22;20045;-88
2022/12/20 03:15:20;;;;;;;12.93;5.88;;;;;;;0.13;68.27;103107.16;6387269;22;20002;-88
2022/12/20 03:18:02;;;;;;;13.80;6.22;;;;;;;0.13;68.35;103110.66;6386165;22;20010;-87
2022/12/20 03:20:54;;;;;;;17.52;6.70;;;;;;;0.54;67.44;103135.31;6394119;22;20076;-88
2022/12/20 03:24:02;;;;;;;15.23;5.68;;;;;;;0.39;67.30;103099.47;6367728;22;20002;-89
2022/12/20 03:26:32;;;;;;;14.90;6.30;;;;;;;0.37;67.93;103111.00;6384441;22;20034;-88
2022/12/20 03:29:34;;;;;;;15.15;6.13;;;;;;;0.47;67.78;103132.84;6384908;22;20010;-86
2022/12/20 03:32:35;;;;;;;14.85;6.78;;;;;;;0.28;66.91;103082.09;6392246;22;19994;-88
2022/12/20 03:35:05;;;;;;;14.43;6.40;;;;;;;0.34;66.91;103096.06;6341229;22;20037;-87
2022/12/20 03:43:05;;;;;;;18.30;6.80;;;;;;;0.52;67.06;103115.97;6421241;22;20017;-88
2022/12/20 03:45:49;;;;;;;15.48;5.88;;;;;;;0.58;66.62;103109.63;6423661;22;20021;-90
2022/12/20 03:48:35;;;;;;;15.73;6.57;;;;;;;0.21;67.20;103094.59;6389288;22;20009;-88
2022/12/20 04:01:35;;;;;;;16.42;6.85;;;;;;;0.15;67.95;103105.34;6389195;22;20400;-89
2022/12/20 04:04:40;;;;;;;19.38;7.00;;;;;;;0.16;67.78;103101.78;6341693;22;20102;-89
2022/12/20 04:07:06;;;;;;;15.30;6.53;;;;;;;0.21;67.66;103102.53;6386067;22;20040;-88
2022/12/20 04:09:35;;;;;;;17.02;6.75;;;;;;;0.13;67.70;103084.19;6340031;22;19990;-88
2022/12/20 04:12:50;;;;;;;15.27;6.25;;;;;;;0.40;67.77;103118.91;6357329;22;20041;-89
2022/12/20 04:15:37;;;;;;;15.25;6.20;;;;;;;0.30;67.51;103083.81;6391602;22;20023;-87
2022/12/20 04:19:03;;;;;;;16.73;6.90;;;;;;;0.43;67.32;103105.59;6339831;22;20014;-89
2022/12/20 04:21:55;;;;;;;15.35;6.57;;;;;;;0.36;67.62;103093.41;6370590;22;20336;-86
2022/12/20 04:25:36;;;;;;;17.55;6.25;;;;;;;0.55;67.10;103120.31;6357513;22;20089;-87
2022/12/20 04:28:41;;;;;;;15.15;6.72;;;;;;;0.44;66.78;103101.16;6349566;22;20030;-88
2022/12/20 04:31:56;;;;;;;;;;;;;;;0.40;66.88;103133.00;6356652;22;20104;-87
2022/12/20 04:35:04;;;;;;;14.20;5.55;;;;;;;0.41;66.69;103107.38;6360026;22;19930;-88
2022/12/20 04:40:43;;;;;;;16.42;6.80;;;;;;;0.26;67.48;103108.63;6392497;22;20074;-89
2022/12/20 04:43:34;;;;;;;15.93;6.85;;;;;;;0.16;67.05;103078.84;6370057;22;20040;-88
2022/12/20 04:46:44;;;;;;;14.98;6.75;;;;;;;0.27;67.25;103110.34;6364406;22;20013;-88
2022/12/20 04:49:45;;;;;;;16.58;7.05;;;;;;;0.33;67.00;103098.78;6392891;22;20015;-89
2022/12/20 04:55:24;;;;;;;15.18;6.65;;;;;;;0.19;67.40;103084.06;6375070;22;20062;-89
2022/12/20 04:57:59;;;;;;;17.52;7.80;;;;;;;0.17;67.34;103093.81;6337195;22;20011;-88
2022/12/20 05:00:46;;;;;;;17.30;7.22;;;;;;;0.25;67.36;103103.34;6391220;22;20010;-88
2022/12/20 05:03:44;;;;;;;;;;;;;;;0.38;67.50;103116.28;6371350;22;19995;-86
2022/12/20 05:06:26;;;;;;;16.08;6.57;;;;;;;0.17;67.51;103087.66;6389095;22;19906;-89
2022/12/20 05:09:18;;;;;;;18.75;7.68;;;;;;;0.08;67.68;103083.44;6356867;22;19994;-90
2022/12/20 05:12:31;;;;;;;16.98;6.45;;;;;;;0.35;67.65;103121.66;6366233;22;20064;-88
2022/12/20 05:15:12;;;;;;;18.17;7.53;;;;;;;0.06;67.66;103081.72;6392417;22;20006;-87
2022/12/20 05:18:03;;;;;;;29.05;8.18;;;;;;;0.20;67.75;103088.44;6394246;22;20016;-87
2022/12/20 05:26:16;;;;;;;19.20;7.35;;;;;;;0.09;67.79;103085.16;6371792;22;19998;-87
2022/12/20 05:26:39;;;;;;;21.52;7.85;;;;;;;0.46;66.65;103104.63;6367992;22;20033;-88
2022/12/20 05:29:07;;;;;;;27.25;10.75;;;;;;;0.56;66.83;103107.03;6366943;22;19994;-88
2022/12/20 05:31:39;;;;;;;20.73;7.95;;;;;;;0.40;66.74;103085.34;6363834;22;20074;-89
2022/12/20 05:34:42;;;;;;;17.77;8.13;;;;;;;0.60;66.86;103132.53;6368072;22;20053;-88
2022/12/20 05:37:35;;;;;;;19.52;7.78;;;;;;;0.36;66.57;103082.81;6238086;23;20007;-90
2022/12/20 05:40:29;;;;;;;17.83;7.47;;;;;;;0.44;66.83;103090.56;6218383;23;20022;-89
2022/12/20 05:43:46;;;;;;;15.88;7.13;;;;;;;0.87;65.85;103127.47;6266465;22;20047;-89
2022/12/20 05:54:25;;;;;;;19.60;8.60;;;;;;;0.72;66.04;103115.47;6384535;22;20466;-87
2022/12/20 05:57:25;;;;;;;16.70;7.72;;;;;;;0.81;65.91;103128.47;6388422;22;19983;-84
2022/12/20 05:59:55;;;;;;;20.25;8.52;;;;;;;0.60;65.95;103107.81;6382112;22;20067;-88
2022/12/20 06:02:37;;;;;;;16.88;8.25;;;;;;;0.76;65.85;103113.63;6329320;22;20010;-86
2022/12/20 06:05:09;;;;;;;20.67;9.40;;;;;;;0.57;65.96;103090.25;6381731;22;20045;-86
2022/12/20 06:07:36;;;;;;;23.35;8.70;;;;;;;0.69;65.26;103088.22;6325079;22;20014;-86
2022/12/20 06:10:02;;;;;;;18.75;9.30;;;;;;;0.60;65.75;103108.69;6324139;22;20010;-85
2022/12/20 06:13:10;;;;;;;19.63;8.23;;;;;;;0.50;66.26;103103.66;6297481;22;20006;-85
2022/12/20 06:15:37;;;;;;;21.42;8.63;;;;;;;0.58;66.06;103104.34;6350510;22;20014;-85
2022/12/20 06:18:04;;;;;;;20.13;8.43;;;;;;;0.70;65.91;103111.13;6326706;22;19998;-86
2022/12/20 06:20:33;;;;;;;23.88;8.38;;;;;;;0.67;66.19;103104.13;6326475;22;20114;-86
2022/12/20 06:23:02;;;;;;;20.63;8.18;;;;;;;0.76;66.04;103121.56;6328300;22;20090;-86
2022/12/20 06:25:38;;;;;;;24.13;9.13;;;;;;;0.69;65.42;103096.16;6326379;22;20006;-86
2022/12/20 06:28:06;;;;;;;18.85;8.00;;;;;;;0.96;65.77;103134.31;6351315;22;20026;-84
2022/12/20 06:30:38;;;;;;;27.10;9.38;;;;;;;0.91;65.69;103107.06;6350119;22;20013;-86
2022/12/20 06:33:07;;;;;;;19.98;9.15;;;;;;;1.16;64.84;103104.66;6379023;22;20058;-85
2022/12/20 06:35:44;;;;;;;23.08;9.93;;;;;;;1.31;64.68;103136.09;6325289;22;20011;-86
2022/12/20 06:38:22;;;;;;;20.75;8.90;;;;;;;1.33;64.26;103128.94;6350682;22;20006;-86
2022/12/20 06:41:08;;;;;;;19.30;8.77;;;;;;;1.38;64.03;103148.25;6353740;22;20032;-85
2022/12/20 06:43:36;;;;;;;16.80;7.47;;;;;;;1.42;63.43;103138.44;6331530;22;20066;-85
2022/12/20 06:46:28;;;;;;;27.38;11.73;;;;;;;1.38;63.71;103129.72;6349685;22;20041;-87
2022/12/20 06:48:56;;;;;;;23.10;10.82;;;;;;;1.57;63.88;103140.69;6378018;22;19998;-84
2022/12/20 06:51:37;;;;;;;21.02;10.07;;;;;;;1.47;63.34;103115.31;6363100;22;20014;-85
2022/12/20 06:54:05;;;;;;;22.80;9.77;;;;;;;1.70;62.69;103125.28;6346277;22;20349;-85
2022/12/20 06:56:31;;;;;;;19.42;8.25;;;;;;;1.84;62.42;103143.47;6370447;22;20077;-86
2022/12/20 06:59:01;;;;;;;21.88;9.45;;;;;;;1.81;62.25;103107.28;6366179;22;20326;-84
2022/12/20 07:01:35;;;;;;;22.35;9.70;;;;;;;2.10;61.37;103108.19;6415198;22;20020;-87
2022/12/20 07:04:11;;;;;;;20.65;9.15;;;;;;;2.41;60.57;103124.06;6385112;22;20012;-86
2022/12/20 07:06:36;;;;;;;21.23;9.02;;;;;;;2.30;60.13;103097.84;6353039;22;20017;-87
2022/12/20 07:09:13;;;;;;;23.83;10.20;;;;;;;2.37;60.65;103106.50;6379935;22;20024;-84
2022/12/20 07:11:38;;;;;;;20.88;9.70;;;;;;;2.43;59.87;103078.88;6333303;22;20006;-86
2022/12/20 07:14:06;;;;;;;22.02;9.55;;;;;;;2.51;60.12;103098.09;6377341;22;20026;-86
2022/12/20 07:16:53;;;;;;;21.77;9.18;;;;;;;2.98;59.08;103085.03;6353178;22;20014;-87
2022/12/20 07:19:20;;;;;;;21.95;9.30;;;;;;;4.71;55.17;103087.41;6378223;22;20032;-84
2022/12/20 07:21:48;;;;;;;26.15;10.52;;;;;;;6.34;49.94;103081.88;6351084;22;20113;-87
2022/12/20 07:24:17;;;;;;;26.17;12.45;;;;;;;8.20;46.25;103095.38;6354662;22;20028;-86
2022/12/20 07:26:52;;;;;;;16.08;8.60;;;;;;;9.88;41.51;103067.47;6413354;22;20005;-87
2022/12/20 07:29:19;;;;;;;21.15;12.00;;;;;;;10.84;38.54;103056.72;6367308;22;20065;-88
2022/12/20 07:31:47;;;;;;;21.10;10.13;;;;;;;12.00;36.86;103069.25;6383451;22;20066;-87
2022/12/20 07:34:13;;;;;;;25.15;12.00;;;;;;;12.82;34.98;103074.88;6328753;22;20010;-87
2022/12/20 07:36:39;;;;;;;;;;;;;;;13.69;33.67;103086.97;6352985;22;20061;-85
2022/12/20 07:39:22;;;;;;;20.48;10.82;;;;;;;14.59;31.93;103060.81;6406929;22;19920;-86
2022/12/20 07:41:53;;;;;;;19.58;10.48;;;;;;;15.89;29.22;103045.91;6409842;22;20439;-89
2022/12/20 07:44:24;;;;;;;20.25;11.05;;;;;;;16.46;27.68;103039.75;6423570;22;19998;-85
2022/12/20 07:46:50;;;;;;;23.50;10.82;;;;;;;17.42;26.75;103045.22;6411254;22;20028;-85
2022/12/20 07:49:16;;;;;;;22.30;11.35;;;;;;;18.02;25.95;103038.53;6404946;22;20006;-86
2022/12/20 07:51:54;;;;;;;21.77;11.48;;;;;;;18.60;25.30;103046.28;6379034;22;20411;-87
2022/12/20 07:54:22;;;;;;;20.90;12.18;;;;;;;18.39;25.20;103034.84;6352380;22;20045;-87
2022/12/20 07:56:52;;;;;;;26.13;12.80;;;;;;;18.68;24.18;103013.69;6359487;22;20024;-88
2022/12/20 07:59:37;;;;;;;18.25;10.88;;;;;;;19.17;24.08;103030.44;6352196;22;20460;-86
2022/12/20 08:02:13;;;;;;;22.30;13.60;;;;;;;18.83;24.06;103033.06;6380995;22;20442;-85
2022/12/20 08:04:39;;;;;;;23.83;14.30;;;;;;;19.35;24.38;103043.13;6340251;22;20062;-87
2022/12/20 08:07:07;;;;;;;26.98;14.35;;;;;;;20.16;23.17;103029.00;6330590;22;20021;-87
2022/12/20 08:09:36;;;;;;;24.27;15.07;;;;;;;20.37;22.62;103011.28;6354066;22;20010;-87
2022/12/20 08:12:08;;;;;;;25.80;14.35;;;;;;;20.09;23.03;103013.44;6416121;22;20070;-86
2022/12/20 08:15:21;;;;;;;29.35;13.82;;;;;;;20.66;22.58;103049.94;6387489;22;20022;-86
2022/12/20 08:26:33;;;;;;;21.73;11.95;;;;;;;20.43;22.52;103033.31;6383747;22;20012;-90
2022/12/20 08:29:20;;;;;;;18.15;11.40;;;;;;;21.26;21.71;103031.44;6419030;22;20014;-89
2022/12/20 08:32:01;;;;;;;19.02;11.00;;;;;;;22.47;20.36;103011.03;6387095;22;20125;-89
2022/12/20 08:34:31;;;;;;;16.52;10.10;;;;;;;22.54;19.89;103004.63;6419312;22;20002;-88
2022/12/20 08:37:23;;;;;;;13.48;9.45;;;;;;;23.60;19.37;103004.59;6396930;22;20010;-87
2022/12/20 08:40:04;;;;;;;19.55;10.82;;;;;;;23.45;19.10;102981.78;6422652;22;19986;-88
2022/12/20 08:43:00;;;;;;;15.70;9.52;;;;;;;24.86;17.75;102988.59;6417650;22;20006;-89
2022/12/20 08:45:51;;;;;;;14.50;8.57;;;;;;;25.86;16.77;102990.03;6393053;22;20017;-88
2022/12/20 08:48:37;;;;;;;10.70;7.68;;;;;;;25.59;17.04;103005.59;6389595;22;20093;-88
2022/12/20 08:51:16;;;;;;;13.73;7.82;;;;;;;26.39;16.01;102991.25;6390307;22;20013;-89
2022/12/20 08:54:04;;;;;;;12.15;7.95;;;;;;;27.02;16.10;102974.22;6375052;22;20010;-91
2022/12/20 08:57:32;;;;;;;15.88;9.13;;;;;;;27.52;15.54;102964.34;6383691;22;20025;-90
2022/12/20 09:00:08;;;;;;;14.27;8.20;;;;;;;28.09;15.07;102963.63;6419453;22;20003;-88
2022/12/20 09:02:53;;;;;;;10.15;7.40;;;;;;;28.53;14.58;102931.41;6366620;22;20013;-89
2022/12/20 09:05:45;;;;;;;13.15;8.20;;;;;;;29.17;14.32;102937.56;6394946;22;20021;-88
2022/12/20 09:08:12;;;;;;;13.52;8.82;;;;;;;29.25;14.04;102956.66;6363764;22;20432;-90
2022/12/20 09:11:12;;;;;;;10.23;7.13;;;;;;;27.09;15.17;102953.84;6387445;22;20035;-91
2022/12/20 09:14:01;;;;;;;13.33;7.50;;;;;;;25.84;16.41;102927.91;6419733;22;20342;-88
2022/12/20 09:16:54;;;;;;;17.70;12.15;;;;;;;24.33;17.87;102945.00;6418972;22;20005;-88
2022/12/20 09:19:41;;;;;;;29.88;18.35;;;;;;;23.81;18.67;102937.88;6389719;22;20006;-88
2022/12/20 09:22:53;;;;;;;29.73;17.20;;;;;;;23.47;18.90;102911.09;6399498;22;20005;-90
2022/12/20 09:26:21;;;;;;;27.15;16.40;;;;;;;23.74;18.72;102957.06;6374856;22;20018;-89
2022/12/20 09:29:14;;;;;;;30.77;16.60;;;;;;;22.60;19.68;102956.44;6394694;22;20029;-90
2022/12/20 09:32:09;;;;;;;30.03;16.40;;;;;;;23.09;19.65;102944.16;6391244;22;20014;-90
2022/12/20 09:34:47;;;;;;;26.25;16.05;;;;;;;21.62;20.79;102902.38;6382022;22;20014;-89
2022/12/20 09:37:46;;;;;;;25.88;16.08;;;;;;;20.96;21.82;102945.53;6378820;22;20190;-89
2022/12/20 09:40:17;;;;;;;30.20;15.95;;;;;;;19.50;23.21;102899.66;6384540;22;20010;-88
2022/12/20 09:42:53;;;;;;;24.77;15.50;;;;;;;18.70;23.95;102901.78;6387992;22;20018;-89
2022/12/20 09:45:36;;;;;;;29.85;16.55;;;;;;;16.84;26.60;102913.09;6367662;22;20061;-88
2022/12/20 09:48:04;;;;;;;30.45;16.95;;;;;;;15.63;28.21;102910.78;6385960;22;20086;-88
2022/12/20 09:51:27;;;;;;;27.23;16.70;;;;;;;15.39;29.39;102935.56;6384982;22;20056;-89
2022/12/20 09:54:04;;;;;;;33.13;15.95;;;;;;;17.32;26.87;102913.03;6387470;22;20010;-90
2022/12/20 09:57:06;;;;;;;28.67;17.23;;;;;;;17.07;27.70;102915.44;6387142;22;20775;-89
2022/12/20 09:59:46;;;;;;;27.17;15.82;;;;;;;18.39;25.49;102893.25;6381924;22;20021;-88
2022/12/20 10:57:38;;;;;;;10.15;4.18;;;;;;;11.58;37.81;102815.41;6302196;22;20025;-91
2022/12/20 11:00:55;;;;;;;8.35;4.60;;;;;;;11.39;38.76;102848.22;6412042;22;20021;-90
2022/12/20 12:01:50;;;;;;;15.00;4.85;;;;;;;8.15;49.24;102749.97;6320099;22;20024;-93
2022/12/20 13:02:52;;;;;;;10.43;5.07;;;;;;;7.26;52.36;102668.75;6247333;22;20035;-92
2022/12/20 13:40:31;;;;;;;9.00;4.88;;;;;;;6.84;53.82;102676.53;6383983;22;20013;-90
2022/12/20 13:46:14;;;;;;;10.13;4.93;;;;;;;6.70;54.54;102692.50;6402041;22;20010;-89
2022/12/20 13:48:54;;;;;;;13.18;5.93;;;;;;;6.86;54.43;102704.06;6426051;22;20002;-90
2022/12/20 13:51:40;;;;;;;16.67;5.50;;;;;;;6.84;54.22;102699.75;6344294;22;20010;-89
2022/12/20 13:54:40;;;;;;;13.23;6.35;;;;;;;6.66;54.45;102669.56;6380712;22;20022;-90
2022/12/20 13:57:16;;;;;;;10.63;4.88;;;;;;;6.58;54.45;102672.66;6423435;22;20054;-89
2022/12/20 13:59:47;;;;;;;12.32;5.68;;;;;;;6.44;55.33;102686.78;6373585;22;20020;-88
2022/12/20 14:02:28;;;;;;;17.35;6.85;;;;;;;6.13;55.75;102653.75;6400733;22;19990;-89
2022/12/20 15:19:51;;;;;;;13.98;7.18;;;;;;;4.26;63.50;102609.88;6309426;22;20022;-90
2022/12/20 15:23:01;;;;;;;18.75;8.25;;;;;;;3.97;64.28;102566.81;6375934;22;20026;-91
2022/12/20 16:27:08;;;;;;;23.80;9.45;;;;;;;2.99;67.77;102587.13;6325741;22;20067;-91
2022/12/20 16:49:02;;;;;;;38.58;18.63;;;;;;;2.61;68.66;102544.44;6392520;22;20121;-91
2022/12/20 17:08:38;;;;;;;25.77;10.65;;;;;;;2.60;69.76;102566.63;6302101;22;20058;-87
2022/12/20 17:11:20;;;;;;;25.33;10.85;;;;;;;2.62;69.94;102591.34;6224396;22;20003;-90
2022/12/20 17:14:09;;;;;;;20.13;9.15;;;;;;;2.39;70.11;102583.41;6277182;22;20018;-89
2022/12/20 17:17:24;;;;;;;23.13;10.45;;;;;;;2.34;69.94;102549.09;6254639;22;20014;-91
2022/12/20 17:20:12;;;;;;;28.90;11.18;;;;;;;2.46;70.12;102576.97;6354080;22;20029;-95
2022/12/20 17:23:20;;;;;;;25.02;11.65;;;;;;;2.62;70.21;102582.50;6304176;22;20011;-92
2022/12/20 17:47:46;;;;;;;34.17;15.85;;;;;;;2.17;70.64;102565.69;6324066;22;20022;-92
2022/12/20 17:54:26;;;;;;;25.92;12.13;;;;;;;2.07;71.02;102564.31;6333166;22;20006;-91
2022/12/20 18:17:40;;;;;;;26.80;13.52;;;;;;;1.59;72.18;102512.22;6352513;22;20109;-89
2022/12/20 18:20:28;;;;;;;30.83;13.35;;;;;;;1.67;72.35;102526.06;6236060;23;20088;-89
2022/12/20 18:23:49;;;;;;;32.75;15.38;;;;;;;1.67;72.77;102540.19;6214543;23;20000;-92
2022/12/20 18:27:04;;;;;;;46.33;15.70;;;;;;;1.50;72.56;102496.66;6232341;23;20091;-94
2022/12/20 18:30:12;;;;;;;29.02;14.48;;;;;;;1.68;72.07;102506.56;6259038;22;20019;-90
2022/12/20 18:32:56;;;;;;;37.75;16.23;;;;;;;1.68;71.96;102518.03;6343594;22;20017;-92
2022/12/20 18:50:31;;;;;;;39.50;18.55;;;;;;;1.96;71.76;102526.72;6329123;22;20019;-89
2022/12/20 18:53:02;;;;;;;;;;;;;;;1.86;72.24;102519.13;6300006;22;20023;-88
2022/12/20 18:55:45;;;;;;;29.33;14.57;;;;;;;1.53;72.70;102485.94;6303219;22;20535;-91
2022/12/20 18:59:03;;;;;;;32.97;15.35;;;;;;;1.50;72.35;102470.13;6260109;22;20247;-91
2022/12/20 19:43:19;;;;;;;44.55;20.75;;;;;;;1.63;72.37;102463.47;6388024;22;20026;-92
2022/12/20 20:30:09;;;;;;;51.13;25.77;;;;;;;1.27;73.64;102413.59;6392668;22;20002;-90
2022/12/20 20:47:46;;;;;;;49.63;22.45;;;;;;;1.34;76.26;102416.88;6388355;22;20022;-93
2022/12/20 20:51:03;;;;;;;48.33;21.30;;;;;;;1.30;75.65;102416.09;6366212;22;20022;-90
2022/12/20 21:14:43;;;;;;;55.10;22.52;;;;;;;0.98;75.88;102386.41;6338004;22;20010;-90
2022/12/20 21:28:30;;;;;;;44.83;18.58;;;;;;;0.62;77.96;102349.75;6262499;22;20015;31
2022/12/20 21:31:00;;;;;;;39.03;19.02;;;;;;;0.45;78.39;102330.13;6230414;22;20082;-88
2022/12/20 21:33:47;;;;;;;39.15;18.77;;;;;;;0.35;78.27;102311.03;6336945;22;20011;-90
2022/12/20 21:39:21;;;;;;;;;;;;;;;0.75;78.16;102357.22;6332922;22;20022;-91
2022/12/20 21:52:55;;;;;;;40.23;18.83;;;;;;;0.24;78.11;102306.13;6339155;22;20006;-92
2022/12/20 22:07:28;;;;;;;42.13;17.90;;;;;;;0.45;78.58;102346.00;6302299;22;20006;31
2022/12/20 22:36:47;;;;;;;45.55;18.23;;;;;;;-0.08;79.58;102262.28;6304699;22;20021;-92
2022/12/20 22:40:22;;;;;;;40.17;17.63;;;;;;;0.18;79.38;102304.56;6384894;22;20022;-95
